This is the latest recevied weather packets stored in our database for station/object K5DLF-9. If no packets are shown the sender has not sent any weather packets the latest 10 day(s).
| Time | Temp. | Humidity | Pressure | Rain* | Wind** | Luminosity | Snow |
|---|---|---|---|---|---|---|---|
| 1787953824 | 76° F | 88% | 759.2 mmHg | 0 in | - | 69 W/m² | - |
| 1787937623 | 95° F | 67% | 760.9 mmHg | 0 in | - | 842 W/m² | - |
| 1787908824 | 81° F | 90% | 759.7 mmHg | 0 in | - | 0 W/m² | - |
| 1787899223 | 81° F | 89% | 759.7 mmHg | 0 in | - | 0 W/m² | - |
| 1787810433 | 81° F | 88% | 758.9 mmHg | 0 in | - | 0 W/m² | - |
| 1787802625 | 82° F | 85% | 758.7 mmHg | 0 in | - | 0 W/m² | - |
| 1787721030 | 81° F | 87% | 759.8 mmHg | 0 in | - | 0 W/m² | - |
| 1787716234 | 82° F | 86% | 760 mmHg | 0 in | - | 0 W/m² | - |
| 1787707231 | 86° F | 78% | 759.1 mmHg | 0 in | - | 0 W/m² | - |
| 1787701230 | 91° F | 73% | 759.1 mmHg | 0 in | - | 42 W/m² | - |
| 1787680232 | 96° F | 65% | 760.9 mmHg | 0 in | - | 842 W/m² | - |
| 1787674833 | 89° F | 78% | 761.5 mmHg | 0 in | - | 761 W/m² | - |
| 1787665833 | 81° F | 95% | 761 mmHg | 0 in | - | 44 W/m² | - |
| 1787619033 | 87° F | 77% | 759.3 mmHg | 0 in | - | 0 W/m² | - |
| 1787604034 | 105° F | 49% | 758.6 mmHg | 0 in | - | 691 W/m² | - |
| 1787602233 | 105° F | 52% | 759 mmHg | 0 in | - | 749 W/m² | - |
| 1787584834 | 86° F | 85% | 760.4 mmHg | 0 in | - | 258 W/m² | - |
| 1787546434 | 80° F | 88% | 759.5 mmHg | 0 in | - | 0 W/m² | - |
| 1787545233 | 80° F | 86% | 759.7 mmHg | 0 in | - | 0 W/m² | - |
| 1787533236 | 88° F | 70% | 758.8 mmHg | 0 in | - | 0 W/m² | - |
| 1787532035 | 89° F | 67% | 758.8 mmHg | 0 in | - | 9 W/m² | - |
| 1787530834 | 91° F | 66% | 758.7 mmHg | 0 in | - | 21 W/m² | - |
| 1787506835 | 95° F | 67% | 760.6 mmHg | 0 in | - | 824 W/m² | - |
| 1787492466 | 79° F | 94% | 760.6 mmHg | 0 in | - | 56 W/m² | - |
| 1787491244 | 78° F | 94% | 760.6 mmHg | 0 in | - | 46 W/m² | - |
* Rain latest hour (hover to see other rain measurements)
** Current wind speed in m/s (hover to see current wind gust speed)